KMML/MML METAR and TAF weather

Enter ICAO airport designator
Station Type Date Time Source
KMML METAR 2020/09/20 00:56 UTC NOAA

KMML 200056Z AUTO 16013KT 10SM CLR 20/11 A3002 RMK AO2 SLP167 T02000111


Station Type Date Time Source
KMML Decoded METAR 2020/09/20 00:56 UTC NOAA

Marshall, Southwest Minnesota Regional Airport - Marshall/Ryan Field, MN, United States (KMML) 44-27N 095-49W
Sep 19, 2020 - 08:56 PM EDT / 2020.09.20 0056 UTC
Wind: from the SSE (160 degrees) at 15 MPH (13 KT):0
Visibility: 10 mile(s):0
Sky conditions: clear
Temperature: 68.0 F (20.0 C)
Dew Point: 52.0 F (11.1 C)
Relative Humidity: 56%
Pressure (altimeter): 30.02 in. Hg (1016 hPa)
ob: KMML 200056Z AUTO 16013KT 10SM CLR 20/11 A3002 RMK AO2 SLP167 T02000111
cycle: 1

Station Type Date Time Source
KMML TAF UTC NOAA

Error!

Example: see airport list